Time;durP1;ratioP1;P1;durP2;ratioP2;P2;SDS_P1;SDS_P2;PMS_P1;PMS_P2;Temp;Humidity;BMP_temperature;BMP_pressure;BME280_temperature;BME280_humidity;BME280_pressure;Samples;Min_cycle;Max_cycle;Signal;HPM_P1;HPM_P2
2023/09/10 00:00:16;;;;;;;440.38;143.32;;;;;;;;;;4996920;28;20032;-57
2023/09/10 00:02:41;;;;;;;406.48;135.70;;;;;;;;;;4997290;28;20120;-55
2023/09/10 00:05:07;;;;;;;572.27;152.17;;;;;;;;;;4996729;28;20030;-57
2023/09/10 00:07:33;;;;;;;452.20;145.45;;;;;;;;;;4997828;28;20257;-55
2023/09/10 00:09:58;;;;;;;605.85;154.88;;;;;;;;;;4995024;28;20079;-57
2023/09/10 00:12:23;;;;;;;455.97;151.53;;;;;;;;;;4996516;28;20109;-58
2023/09/10 00:14:48;;;;;;;410.80;121.50;;;;;;;;;;4996705;28;20343;-58
2023/09/10 00:17:13;;;;;;;358.60;118.13;;;;;;;;;;4997478;28;20297;-57
2023/09/10 00:19:39;;;;;;;377.90;125.07;;;;;;;;;;4998797;28;20264;-57
2023/09/10 00:22:04;;;;;;;515.70;127.73;;;;;;;;;;4998431;28;20030;-56
2023/09/10 00:24:29;;;;;;;397.13;120.70;;;;;;;;;;4995815;28;20279;-56
2023/09/10 00:26:54;;;;;;;495.13;132.87;;;;;;;;;;5000894;28;20284;-56
2023/09/10 00:29:20;;;;;;;459.57;138.10;;;;;;;;;;4997593;28;20280;-56
2023/09/10 00:31:45;;;;;;;397.63;135.83;;;;;;;;;;4996433;28;20269;-57
2023/09/10 00:34:12;;;;;;;500.90;140.47;;;;;;;;;;4997198;28;20345;-56
2023/09/10 00:36:38;;;;;;;450.70;140.95;;;;;;;;;;4996626;28;20277;-55
2023/09/10 00:39:03;;;;;;;488.73;145.77;;;;;;;;;;4999232;28;20032;-55
2023/09/10 00:41:28;;;;;;;435.95;144.82;;;;;;;;;;5000464;28;20356;-56
2023/09/10 00:43:53;;;;;;;469.60;146.97;;;;;;;;;;4993705;28;20029;-56
2023/09/10 00:46:19;;;;;;;425.97;136.83;;;;;;;;;;4995371;28;20274;-55
2023/09/10 00:48:44;;;;;;;415.02;138.00;;;;;;;;;;4994288;28;20362;-55
2023/09/10 00:51:10;;;;;;;550.95;151.68;;;;;;;;;;4993836;28;20061;-55
2023/09/10 00:53:36;;;;;;;423.95;148.15;;;;;;;;;;4994161;28;20083;-55
2023/09/10 00:56:02;;;;;;;500.77;151.85;;;;;;;;;;4992542;28;20029;-57
2023/09/10 00:58:27;;;;;;;464.70;150.20;;;;;;;;;;4994559;28;20713;-57
2023/09/10 01:00:53;;;;;;;458.83;150.85;;;;;;;;;;4996722;28;20048;-57
2023/09/10 01:03:19;;;;;;;445.58;151.52;;;;;;;;;;4995768;28;20048;-57
2023/09/10 01:05:44;;;;;;;434.75;148.50;;;;;;;;;;4993985;28;20035;-56
2023/09/10 01:08:10;;;;;;;562.83;156.82;;;;;;;;;;4994526;28;20026;-56
2023/09/10 01:10:58;;;;;;;439.42;150.25;;;;;;;;;;4996652;28;20103;-55
2023/09/10 01:13:43;;;;;;;465.50;149.07;;;;;;;;;;4994675;28;20038;-55
2023/09/10 01:16:12;;;;;;;507.15;153.30;;;;;;;;;;4995501;28;20026;-56
2023/09/10 01:18:37;;;;;;;475.65;152.82;;;;;;;;;;4995866;28;20038;-55
2023/09/10 01:21:23;;;;;;;596.53;157.93;;;;;;;;;;4990486;28;20120;-55
2023/09/10 01:23:54;;;;;;;451.63;149.05;;;;;;;;;;4975538;28;20041;-56
2023/09/10 01:26:19;;;;;;;434.70;150.43;;;;;;;;;;4992660;28;20109;-57
2023/09/10 01:28:44;;;;;;;432.47;151.40;;;;;;;;;;5000467;28;20113;-56
2023/09/10 01:31:10;;;;;;;576.50;160.40;;;;;;;;;;4991630;28;20388;-56
2023/09/10 01:33:38;;;;;;;453.17;153.82;;;;;;;;;;4995879;28;20452;-57
2023/09/10 01:36:33;;;;;;;570.72;160.93;;;;;;;;;;4993392;28;20354;-55
2023/09/10 01:39:07;;;;;;;499.40;156.50;;;;;;;;;;4986771;28;20515;-57
2023/09/10 01:41:34;;;;;;;456.17;155.23;;;;;;;;;;4994112;28;20048;-57
2023/09/10 01:43:59;;;;;;;496.52;155.77;;;;;;;;;;4992988;28;20076;-57
2023/09/10 01:46:26;;;;;;;504.95;155.63;;;;;;;;;;4993583;28;20033;-56
2023/09/10 01:48:51;;;;;;;446.23;154.65;;;;;;;;;;4994105;28;20021;-57
2023/09/10 01:51:17;;;;;;;462.02;156.07;;;;;;;;;;4994512;28;20436;-57
2023/09/10 01:53:42;;;;;;;462.98;152.38;;;;;;;;;;4993233;28;20076;-58
2023/09/10 01:56:07;;;;;;;509.80;158.27;;;;;;;;;;4996519;28;20152;-56
2023/09/10 01:58:32;;;;;;;424.73;151.50;;;;;;;;;;4993628;28;20699;-55
2023/09/10 02:00:58;;;;;;;465.70;155.48;;;;;;;;;;4994285;28;20811;-55
2023/09/10 02:03:23;;;;;;;469.27;155.80;;;;;;;;;;4993530;28;20041;-56
2023/09/10 02:05:48;;;;;;;454.67;157.27;;;;;;;;;;4995757;28;20272;-58
2023/09/10 02:08:14;;;;;;;568.90;162.20;;;;;;;;;;4996343;28;20336;-55
2023/09/10 02:10:40;;;;;;;470.13;155.60;;;;;;;;;;4994731;28;20609;-58
2023/09/10 02:13:05;;;;;;;576.70;158.82;;;;;;;;;;4994104;28;20571;-54
2023/09/10 02:15:30;;;;;;;437.70;151.80;;;;;;;;;;4993965;28;20045;-54
2023/09/10 02:17:56;;;;;;;448.90;154.60;;;;;;;;;;4995215;28;20755;-55
2023/09/10 02:20:21;;;;;;;464.77;156.13;;;;;;;;;;4992857;28;20029;-53
2023/09/10 02:22:47;;;;;;;440.15;150.93;;;;;;;;;;4992871;28;20144;-54
2023/09/10 02:25:12;;;;;;;562.53;156.43;;;;;;;;;;4992365;28;20173;-57
2023/09/10 02:27:38;;;;;;;460.63;154.00;;;;;;;;;;4997498;28;20026;-54
2023/09/10 02:30:03;;;;;;;617.45;163.70;;;;;;;;;;4995076;28;20451;-55
2023/09/10 02:32:29;;;;;;;463.15;154.63;;;;;;;;;;4995113;28;20029;-54
2023/09/10 02:34:54;;;;;;;461.67;156.75;;;;;;;;;;4993821;28;20389;-56
2023/09/10 02:37:20;;;;;;;473.07;155.03;;;;;;;;;;4991108;28;20347;-56
2023/09/10 02:39:45;;;;;;;447.10;156.30;;;;;;;;;;4994431;28;20253;-54
2023/09/10 02:42:11;;;;;;;593.83;162.15;;;;;;;;;;4983354;28;20034;-55
2023/09/10 02:44:36;;;;;;;459.97;160.07;;;;;;;;;;4998540;28;20021;-55
2023/09/10 02:47:01;;;;;;;501.08;160.82;;;;;;;;;;4994131;28;20313;-54
2023/09/10 02:49:27;;;;;;;484.60;159.07;;;;;;;;;;4997314;28;20809;-54
2023/09/10 02:51:52;;;;;;;447.17;158.10;;;;;;;;;;4997036;28;20068;-55
2023/09/10 02:54:17;;;;;;;575.57;160.67;;;;;;;;;;4993417;28;20025;-53
2023/09/10 02:56:42;;;;;;;431.27;149.63;;;;;;;;;;4996970;28;20269;-54
2023/09/10 02:59:17;;;;;;;516.03;154.23;;;;;;;;;;4993718;28;20026;-56
2023/09/10 03:01:42;;;;;;;455.27;155.10;;;;;;;;;;4998488;28;20042;-53
2023/09/10 03:04:07;;;;;;;581.07;160.97;;;;;;;;;;5000448;28;20030;-56
2023/09/10 03:06:32;;;;;;;442.67;155.57;;;;;;;;;;4999899;28;20034;-56
2023/09/10 03:08:57;;;;;;;441.63;154.97;;;;;;;;;;4997324;28;20425;-57
2023/09/10 03:11:23;;;;;;;476.30;157.43;;;;;;;;;;4992040;28;20355;-56
2023/09/10 03:13:48;;;;;;;439.07;156.13;;;;;;;;;;4998242;28;20252;-58
2023/09/10 03:16:13;;;;;;;591.90;165.07;;;;;;;;;;4995244;28;20276;-56
2023/09/10 03:18:38;;;;;;;438.53;158.77;;;;;;;;;;4997651;28;20253;-57
2023/09/10 03:21:04;;;;;;;473.77;160.60;;;;;;;;;;4999728;28;20273;-55
2023/09/10 03:23:29;;;;;;;424.15;158.07;;;;;;;;;;5000499;28;20336;-55
2023/09/10 03:25:54;;;;;;;446.52;161.40;;;;;;;;;;5000099;28;20168;-57
2023/09/10 03:28:20;;;;;;;588.97;159.27;;;;;;;;;;5000265;28;20032;-58
2023/09/10 03:30:45;;;;;;;480.30;171.88;;;;;;;;;;5002777;28;20639;-56
2023/09/10 03:33:10;;;;;;;595.47;174.70;;;;;;;;;;4996226;28;20050;-54
2023/09/10 03:35:35;;;;;;;426.33;156.67;;;;;;;;;;4995730;28;20329;-55
2023/09/10 03:38:01;;;;;;;476.67;157.82;;;;;;;;;;5000113;28;20348;-57
2023/09/10 03:40:26;;;;;;;482.67;160.52;;;;;;;;;;4996010;28;20378;-58
2023/09/10 03:42:51;;;;;;;455.80;163.70;;;;;;;;;;4997400;28;20140;-55
2023/09/10 03:45:17;;;;;;;591.53;167.20;;;;;;;;;;4997662;28;20643;-55
2023/09/10 03:47:42;;;;;;;490.88;161.32;;;;;;;;;;5000563;28;20075;-58
2023/09/10 03:50:07;;;;;;;500.92;159.65;;;;;;;;;;4999986;28;20025;-55
2023/09/10 03:52:33;;;;;;;451.42;158.02;;;;;;;;;;4994666;28;20034;-57
2023/09/10 03:54:58;;;;;;;499.13;161.75;;;;;;;;;;4997671;28;20021;-57
2023/09/10 03:57:23;;;;;;;472.83;166.53;;;;;;;;;;4997336;28;20591;-58
2023/09/10 03:59:48;;;;;;;474.60;163.00;;;;;;;;;;4995487;28;20769;-56
2023/09/10 04:02:14;;;;;;;511.75;117.82;;;;;;;;;;4994750;28;20273;-56
2023/09/10 04:04:39;;;;;;;374.45;102.82;;;;;;;;;;4997442;28;20025;-59
2023/09/10 04:07:05;;;;;;;328.08;98.00;;;;;;;;;;4996601;28;20037;-57
2023/09/10 04:09:30;;;;;;;334.67;97.15;;;;;;;;;;4998806;28;20026;-56
2023/09/10 04:11:57;;;;;;;419.35;108.85;;;;;;;;;;4992515;28;20030;-56
2023/09/10 04:14:22;;;;;;;469.15;115.00;;;;;;;;;;4997698;28;20026;-57
2023/09/10 04:16:48;;;;;;;326.70;98.68;;;;;;;;;;4994613;28;20030;-56
2023/09/10 04:19:13;;;;;;;468.23;107.13;;;;;;;;;;4997685;28;20460;-56
2023/09/10 04:21:38;;;;;;;346.23;102.60;;;;;;;;;;4995647;28;20294;-53
2023/09/10 04:24:05;;;;;;;335.90;104.97;;;;;;;;;;4998513;28;20021;-56
2023/09/10 04:26:30;;;;;;;313.33;98.28;;;;;;;;;;5001379;28;20435;-55
2023/09/10 04:28:55;;;;;;;351.30;96.45;;;;;;;;;;4993920;28;20840;-56
2023/09/10 04:31:21;;;;;;;437.77;113.27;;;;;;;;;;4991919;28;20274;-56
2023/09/10 04:33:46;;;;;;;352.33;100.80;;;;;;;;;;4994146;28;20272;-53
2023/09/10 04:36:11;;;;;;;497.20;107.32;;;;;;;;;;4992593;28;20268;-54
2023/09/10 04:38:37;;;;;;;360.88;99.90;;;;;;;;;;4997952;28;20023;-56
2023/09/10 04:41:02;;;;;;;320.92;93.65;;;;;;;;;;4996214;28;20583;-57
2023/09/10 04:43:27;;;;;;;343.00;96.87;;;;;;;;;;4992927;28;20026;-57
2023/09/10 04:45:53;;;;;;;374.95;96.45;;;;;;;;;;4999217;28;20718;-55
2023/09/10 04:48:18;;;;;;;368.67;97.78;;;;;;;;;;4993775;28;20041;-56
2023/09/10 04:50:43;;;;;;;330.70;92.07;;;;;;;;;;4996565;28;20422;-56
2023/09/10 04:53:09;;;;;;;372.08;98.60;;;;;;;;;;4994473;28;20459;-57
2023/09/10 04:55:34;;;;;;;361.25;101.25;;;;;;;;;;4996401;28;20137;-59
2023/09/10 04:58:00;;;;;;;331.23;97.00;;;;;;;;;;4998649;28;20046;-61
2023/09/10 05:00:25;;;;;;;507.02;111.05;;;;;;;;;;4998597;28;20040;-58
2023/09/10 05:02:50;;;;;;;366.03;94.03;;;;;;;;;;4993915;28;20389;-58
2023/09/10 05:05:15;;;;;;;462.63;100.13;;;;;;;;;;4994473;28;20303;-56
2023/09/10 05:07:41;;;;;;;315.35;94.50;;;;;;;;;;4998404;28;20652;-56
2023/09/10 05:10:06;;;;;;;352.47;91.73;;;;;;;;;;4995608;28;20021;-56
2023/09/10 05:12:31;;;;;;;349.60;92.35;;;;;;;;;;4996938;28;20284;-56
2023/09/10 05:14:57;;;;;;;371.05;102.43;;;;;;;;;;4995772;28;20407;-56
2023/09/10 05:17:22;;;;;;;498.35;108.95;;;;;;;;;;4994708;28;20045;-55
2023/09/10 05:19:47;;;;;;;374.38;104.65;;;;;;;;;;4994306;28;20060;-57
2023/09/10 05:22:13;;;;;;;478.63;112.45;;;;;;;;;;4990899;28;20074;-55
2023/09/10 05:24:38;;;;;;;371.17;116.70;;;;;;;;;;4992337;28;20025;-57
2023/09/10 05:27:03;;;;;;;383.90;114.65;;;;;;;;;;4996445;28;20034;-56
2023/09/10 05:29:29;;;;;;;410.27;118.93;;;;;;;;;;4991841;28;20405;-56
2023/09/10 05:31:54;;;;;;;413.20;116.40;;;;;;;;;;4993616;28;20038;-56
2023/09/10 05:34:19;;;;;;;527.05;123.90;;;;;;;;;;4996565;28;20632;-57
2023/09/10 05:36:44;;;;;;;256.57;75.60;;;;;;;;;;4994350;28;20026;-56
2023/09/10 05:39:10;;;;;;;347.10;85.10;;;;;;;;;;4993096;28;20026;-53
2023/09/10 05:41:35;;;;;;;278.93;71.77;;;;;;;;;;4993918;28;20038;-56
2023/09/10 05:44:00;;;;;;;265.87;67.77;;;;;;;;;;4994412;28;21009;-55
2023/09/10 05:46:25;;;;;;;365.40;71.43;;;;;;;;;;4994332;28;20678;-56
2023/09/10 05:48:51;;;;;;;314.15;74.40;;;;;;;;;;5000157;28;20328;-56
2023/09/10 05:51:16;;;;;;;382.57;70.73;;;;;;;;;;4993774;28;20084;-55
2023/09/10 05:53:42;;;;;;;171.67;58.17;;;;;;;;;;4996209;28;20970;-54
2023/09/10 05:56:08;;;;;;;291.65;70.80;;;;;;;;;;4994962;28;20290;-54
2023/09/10 05:58:33;;;;;;;325.33;82.93;;;;;;;;;;4996349;28;20049;-54
2023/09/10 06:00:58;;;;;;;214.40;59.67;;;;;;;;;;4999496;28;20060;-54
2023/09/10 06:03:23;;;;;;;426.47;83.20;;;;;;;;;;4996043;28;20055;-54
2023/09/10 06:05:49;;;;;;;320.37;79.90;;;;;;;;;;4996261;28;20084;-56
2023/09/10 06:08:14;;;;;;;307.10;67.72;;;;;;;;;;4992379;28;20022;-55
2023/09/10 06:10:39;;;;;;;206.77;66.87;;;;;;;;;;4994463;28;20350;-56
2023/09/10 06:13:06;;;;;;;233.15;68.57;;;;;;;;;;4992715;28;20290;-56
2023/09/10 06:15:31;;;;;;;343.87;77.00;;;;;;;;;;4993310;28;21723;-54
2023/09/10 06:17:56;;;;;;;239.55;70.97;;;;;;;;;;5011630;28;20520;-55
2023/09/10 06:20:22;;;;;;;404.90;80.10;;;;;;;;;;4995819;28;20029;-54
2023/09/10 06:22:47;;;;;;;278.87;66.67;;;;;;;;;;4995730;28;20034;-55
2023/09/10 06:25:12;;;;;;;275.90;66.53;;;;;;;;;;4994512;28;20527;-57
2023/09/10 06:27:38;;;;;;;230.95;63.70;;;;;;;;;;4997650;28;20463;-54
2023/09/10 06:30:03;;;;;;;276.57;57.23;;;;;;;;;;4995833;28;20030;-55
2023/09/10 06:32:28;;;;;;;389.23;59.88;;;;;;;;;;4992365;28;20709;-56
2023/09/10 06:34:54;;;;;;;209.80;24.30;;;;;;;;;;4997419;28;20034;-54
2023/09/10 06:37:19;;;;;;;291.07;34.53;;;;;;;;;;4991329;28;20335;-56
2023/09/10 06:39:44;;;;;;;242.70;48.30;;;;;;;;;;4993638;28;20022;-56
2023/09/10 06:42:13;;;;;;;284.30;55.28;;;;;;;;;;4993848;28;20312;-55
2023/09/10 06:44:42;;;;;;;159.40;18.25;;;;;;;;;;4988972;28;20026;-55
2023/09/10 06:47:07;;;;;;;243.43;74.13;;;;;;;;;;4994615;28;20581;-56
2023/09/10 06:49:32;;;;;;;222.27;15.83;;;;;;;;;;4993395;28;20034;-55
2023/09/10 06:51:58;;;;;;;162.75;25.25;;;;;;;;;;4993680;28;20844;-55
2023/09/10 06:54:23;;;;;;;297.60;25.93;;;;;;;;;;4993894;28;20048;-55
2023/09/10 06:56:48;;;;;;;369.70;253.57;;;;;;;;;;4993605;28;20331;-55
2023/09/10 06:59:13;;;;;;;163.10;10.93;;;;;;;;;;4995534;28;20018;-56
2023/09/10 07:01:39;;;;;;;279.63;124.30;;;;;;;;;;4992558;28;20739;-57
2023/09/10 07:04:17;;;;;;;363.97;253.87;;;;;;;;;;4995885;28;20272;-57
2023/09/10 07:06:43;;;;;;;368.70;195.70;;;;;;;;;;4995258;28;20522;-55
2023/09/10 07:09:09;;;;;;;373.15;247.27;;;;;;;;;;4994320;28;20026;-56
2023/09/10 07:11:35;;;;;;;442.67;244.65;;;;;;;;;;4990925;28;20069;-57
2023/09/10 07:14:00;;;;;;;462.77;384.10;;;;;;;;;;4996016;28;20049;-57
2023/09/10 07:16:27;;;;;;;573.53;297.10;;;;;;;;;;4994925;28;20145;-58
2023/09/10 07:18:52;;;;;;;432.25;304.98;;;;;;;;;;4992664;28;20053;-59
2023/09/10 07:21:17;;;;;;;352.20;229.10;;;;;;;;;;4991102;28;20179;-56
2023/09/10 07:23:43;;;;;;;377.33;277.33;;;;;;;;;;4993999;28;20065;-58
2023/09/10 07:26:08;;;;;;;451.70;298.73;;;;;;;;;;4990099;28;20326;-56
2023/09/10 07:28:33;;;;;;;533.43;257.27;;;;;;;;;;4990250;28;20069;-56
2023/09/10 07:30:58;;;;;;;319.03;231.90;;;;;;;;;;4992338;28;20058;-57
2023/09/10 07:33:23;;;;;;;456.57;270.23;;;;;;;;;;4992087;28;20113;-58
2023/09/10 07:35:49;;;;;;;481.17;325.83;;;;;;;;;;4992763;28;20276;-57
2023/09/10 07:38:14;;;;;;;330.47;264.13;;;;;;;;;;4995676;28;20036;-57
2023/09/10 07:40:39;;;;;;;417.53;268.03;;;;;;;;;;4995752;28;20028;-58
2023/09/10 07:43:04;;;;;;;447.77;368.83;;;;;;;;;;4994723;28;20075;-57
2023/09/10 07:45:30;;;;;;;506.30;254.13;;;;;;;;;;4990255;28;20523;-57
2023/09/10 07:47:56;;;;;;;399.87;321.03;;;;;;;;;;4995644;28;20037;-58
2023/09/10 07:50:22;;;;;;;550.97;369.08;;;;;;;;;;4994447;28;20029;-58
2023/09/10 07:52:47;;;;;;;486.92;382.70;;;;;;;;;;4994717;28;20686;-56
2023/09/10 07:55:13;;;;;;;461.57;367.63;;;;;;;;;;4995117;28;20018;-58
2023/09/10 07:57:39;;;;;;;384.77;264.53;;;;;;;;;;4998448;28;20072;-57
2023/09/10 08:00:06;;;;;;;464.02;312.88;;;;;;;;;;4997707;28;20273;-57
2023/09/10 08:02:34;;;;;;;499.55;273.67;;;;;;;;;;4993065;28;20045;-56
2023/09/10 08:05:00;;;;;;;364.63;281.00;;;;;;;;;;4995659;28;20242;-58
2023/09/10 08:07:25;;;;;;;575.00;375.77;;;;;;;;;;4996409;28;20037;-56
2023/09/10 08:09:50;;;;;;;548.53;376.87;;;;;;;;;;4997305;28;20644;-59
2023/09/10 08:12:15;;;;;;;344.00;240.13;;;;;;;;;;4995194;28;20072;-57
2023/09/10 08:14:41;;;;;;;472.60;342.92;;;;;;;;;;5002498;28;20940;-58
2023/09/10 08:17:06;;;;;;;329.80;232.45;;;;;;;;;;4995304;28;20111;-58
2023/09/10 08:19:32;;;;;;;474.55;243.43;;;;;;;;;;4997128;28;20116;-59
2023/09/10 08:21:57;;;;;;;397.77;235.82;;;;;;;;;;4995439;28;20064;-57
2023/09/10 08:24:22;;;;;;;511.20;340.77;;;;;;;;;;4995231;28;20104;-57
2023/09/10 08:26:48;;;;;;;385.95;299.38;;;;;;;;;;4997993;28;20056;-57
2023/09/10 08:29:13;;;;;;;469.98;334.77;;;;;;;;;;5000637;28;20490;-58
2023/09/10 08:31:38;;;;;;;454.37;336.17;;;;;;;;;;4994829;28;20049;-59
2023/09/10 08:34:04;;;;;;;463.10;367.00;;;;;;;;;;4997287;28;20313;-58
2023/09/10 08:36:29;;;;;;;433.67;248.37;;;;;;;;;;4995274;28;21021;-56
2023/09/10 08:38:54;;;;;;;593.78;493.88;;;;;;;;;;4998125;28;20028;-57
2023/09/10 08:41:32;;;;;;;371.77;268.52;;;;;;;;;;4996686;28;20039;-57
2023/09/10 08:43:58;;;;;;;390.95;327.25;;;;;;;;;;4997874;28;20033;-59
2023/09/10 08:46:29;;;;;;;450.25;323.45;;;;;;;;;;4998810;28;20033;-58
2023/09/10 08:48:55;;;;;;;406.92;270.75;;;;;;;;;;4993737;28;20021;-59
2023/09/10 08:51:21;;;;;;;363.15;304.17;;;;;;;;;;4994687;28;20031;-58
2023/09/10 08:53:47;;;;;;;429.30;322.90;;;;;;;;;;4993811;28;20040;-58
2023/09/10 08:56:12;;;;;;;367.17;291.08;;;;;;;;;;4988178;28;20030;-57
2023/09/10 08:58:38;;;;;;;534.67;287.27;;;;;;;;;;4992399;28;20157;-56
2023/09/10 09:01:03;;;;;;;427.27;292.48;;;;;;;;;;4992896;28;20475;-56
2023/09/10 09:03:30;;;;;;;496.48;282.60;;;;;;;;;;4991744;28;20626;-58
2023/09/10 09:05:57;;;;;;;519.10;357.98;;;;;;;;;;4990528;28;20062;-59
2023/09/10 09:08:26;;;;;;;511.00;313.25;;;;;;;;;;4993201;28;20030;-56
2023/09/10 09:10:51;;;;;;;467.50;273.15;;;;;;;;;;4994786;28;20022;-57
2023/09/10 09:13:17;;;;;;;473.10;352.30;;;;;;;;;;4990164;28;20064;-57
2023/09/10 09:15:43;;;;;;;532.88;310.33;;;;;;;;;;4989663;28;20041;-55
2023/09/10 09:18:12;;;;;;;424.00;251.48;;;;;;;;;;4990523;28;20553;-58
2023/09/10 09:20:39;;;;;;;528.30;301.33;;;;;;;;;;4990469;28;20495;-56
2023/09/10 09:23:09;;;;;;;390.20;248.07;;;;;;;;;;4989086;28;20022;-57
2023/09/10 09:25:35;;;;;;;543.00;346.80;;;;;;;;;;4990887;28;20031;-56
2023/09/10 09:28:02;;;;;;;433.50;306.58;;;;;;;;;;4990358;28;20053;-57
2023/09/10 09:30:28;;;;;;;493.05;277.10;;;;;;;;;;4992436;28;20025;-57
2023/09/10 09:32:53;;;;;;;363.17;258.70;;;;;;;;;;4990438;28;20007;-57
2023/09/10 09:35:18;;;;;;;465.70;331.43;;;;;;;;;;4995345;28;20025;-57
2023/09/10 09:37:44;;;;;;;351.52;204.95;;;;;;;;;;4992024;28;20244;-58
2023/09/10 09:40:09;;;;;;;347.77;234.03;;;;;;;;;;4998303;28;20053;-58
2023/09/10 09:42:36;;;;;;;544.25;347.92;;;;;;;;;;4988280;28;20100;-57
2023/09/10 09:45:02;;;;;;;428.48;307.65;;;;;;;;;;4992718;28;20017;-56
2023/09/10 09:47:27;;;;;;;506.88;254.57;;;;;;;;;;4988894;28;20037;-57
2023/09/10 09:49:55;;;;;;;476.70;295.63;;;;;;;;;;4990766;28;20061;-57
2023/09/10 09:52:21;;;;;;;437.35;238.25;;;;;;;;;;4991889;28;20046;-57
2023/09/10 09:54:47;;;;;;;438.58;242.38;;;;;;;;;;4992022;28;20024;-56
2023/09/10 09:57:12;;;;;;;448.63;316.90;;;;;;;;;;4993041;28;20034;-56
2023/09/10 09:59:38;;;;;;;547.17;307.33;;;;;;;;;;4994841;28;20022;-55
2023/09/10 10:02:03;;;;;;;531.40;333.27;;;;;;;;;;4990831;28;20140;-56
2023/09/10 10:04:32;;;;;;;529.95;308.48;;;;;;;;;;4987887;28;20033;-57
2023/09/10 10:06:57;;;;;;;405.88;320.92;;;;;;;;;;4991985;28;20080;-55
2023/09/10 10:09:23;;;;;;;438.58;283.00;;;;;;;;;;4986920;28;20030;-57
2023/09/10 10:11:48;;;;;;;485.63;381.33;;;;;;;;;;4991260;28;20078;-56
2023/09/10 10:14:14;;;;;;;532.70;414.90;;;;;;;;;;4992931;28;20049;-59
2023/09/10 10:16:39;;;;;;;544.47;367.88;;;;;;;;;;4988024;28;20032;-56
2023/09/10 10:19:05;;;;;;;431.10;322.98;;;;;;;;;;4995627;28;20014;-57
2023/09/10 10:21:30;;;;;;;507.50;252.55;;;;;;;;;;4991947;28;20042;-56
2023/09/10 10:23:56;;;;;;;481.52;334.05;;;;;;;;;;4991582;28;20061;-56
2023/09/10 10:26:22;;;;;;;452.63;243.75;;;;;;;;;;4992745;28;20091;-58
2023/09/10 10:28:49;;;;;;;423.23;221.02;;;;;;;;;;4989458;28;20026;-56
2023/09/10 10:31:18;;;;;;;408.98;219.20;;;;;;;;;;4991806;28;20030;-61
2023/09/10 10:33:53;;;;;;;538.65;229.52;;;;;;;;;;4989431;28;20026;-58
2023/09/10 10:36:37;;;;;;;394.05;286.92;;;;;;;;;;4991449;28;20053;-58
2023/09/10 10:39:08;;;;;;;423.08;244.93;;;;;;;;;;4990954;28;20736;-58
2023/09/10 10:41:34;;;;;;;445.45;234.65;;;;;;;;;;4989725;28;20042;-58
2023/09/10 10:44:09;;;;;;;387.50;263.95;;;;;;;;;;4993404;28;20132;-59
2023/09/10 10:46:36;;;;;;;606.10;359.35;;;;;;;;;;4989630;28;20034;-58
2023/09/10 10:49:03;;;;;;;513.40;333.65;;;;;;;;;;4991958;28;20109;-58
2023/09/10 10:51:30;;;;;;;550.42;360.52;;;;;;;;;;4989426;28;20049;-58
2023/09/10 10:53:55;;;;;;;359.17;269.65;;;;;;;;;;4992157;28;20023;-57
2023/09/10 10:56:21;;;;;;;340.13;255.20;;;;;;;;;;4994024;28;20115;-60
2023/09/10 10:58:46;;;;;;;436.80;247.20;;;;;;;;;;4992632;28;20491;-60
2023/09/10 11:01:12;;;;;;;341.30;233.10;;;;;;;;;;4990413;28;20407;-59
2023/09/10 11:03:37;;;;;;;467.17;245.73;;;;;;;;;;4990746;28;20030;-60
2023/09/10 11:06:07;;;;;;;321.40;222.37;;;;;;;;;;4991223;28;20105;-59
2023/09/10 11:08:33;;;;;;;553.50;258.77;;;;;;;;;;4993652;28;20025;-58
2023/09/10 11:10:59;;;;;;;534.20;349.70;;;;;;;;;;4989624;28;20773;-58
2023/09/10 11:13:24;;;;;;;409.85;229.80;;;;;;;;;;4991957;28;20018;-59
2023/09/10 11:16:05;;;;;;;475.38;309.65;;;;;;;;;;4991593;28;20061;-58
2023/09/10 11:18:41;;;;;;;312.70;248.95;;;;;;;;;;4991964;28;20079;-59
2023/09/10 11:21:06;;;;;;;448.65;279.50;;;;;;;;;;4994923;28;20452;-59
2023/09/10 11:23:32;;;;;;;470.17;240.17;;;;;;;;;;4995240;28;20484;-58
2023/09/10 11:26:13;;;;;;;421.95;229.82;;;;;;;;;;4990692;28;20072;-59
2023/09/10 11:28:47;;;;;;;600.10;363.88;;;;;;;;;;4992707;28;20629;-60
2023/09/10 11:31:31;;;;;;;344.17;223.52;;;;;;;;;;4993702;28;20058;-59
2023/09/10 11:33:58;;;;;;;490.33;371.73;;;;;;;;;;4994703;28;21018;-58
2023/09/10 11:36:27;;;;;;;567.25;339.25;;;;;;;;;;4993739;28;20817;-58
2023/09/10 11:38:54;;;;;;;505.23;335.75;;;;;;;;;;4996172;28;20488;-58
2023/09/10 11:41:20;;;;;;;545.65;390.30;;;;;;;;;;4991736;28;20030;-59
2023/09/10 11:43:48;;;;;;;510.75;222.30;;;;;;;;;;4989099;28;20053;-58
2023/09/10 11:46:13;;;;;;;454.95;383.42;;;;;;;;;;4992832;28;20030;-58
2023/09/10 11:48:39;;;;;;;582.40;341.53;;;;;;;;;;4993540;28;20092;-59
2023/09/10 11:51:04;;;;;;;385.33;248.20;;;;;;;;;;4993211;28;21025;-57
2023/09/10 11:53:29;;;;;;;381.53;209.93;;;;;;;;;;4996285;28;20025;-57
2023/09/10 11:55:54;;;;;;;397.67;287.53;;;;;;;;;;4990498;28;20033;-59
2023/09/10 11:58:20;;;;;;;326.73;207.93;;;;;;;;;;4993738;28;20057;-57
2023/09/10 12:00:45;;;;;;;544.30;229.88;;;;;;;;;;4993346;28;20277;-58
2023/09/10 12:03:11;;;;;;;386.67;229.15;;;;;;;;;;4995049;28;20519;-58
2023/09/10 12:05:36;;;;;;;488.42;250.82;;;;;;;;;;4997142;28;20033;-59
2023/09/10 12:08:02;;;;;;;427.20;208.48;;;;;;;;;;4993483;28;20070;-58
2023/09/10 12:10:27;;;;;;;425.80;204.50;;;;;;;;;;4989415;28;20356;-56
2023/09/10 12:12:53;;;;;;;374.70;219.77;;;;;;;;;;4993964;28;20448;-57
2023/09/10 12:15:18;;;;;;;423.42;258.35;;;;;;;;;;4992572;28;20018;-57
2023/09/10 12:17:44;;;;;;;513.03;231.93;;;;;;;;;;4989201;28;20093;-56
2023/09/10 12:20:09;;;;;;;339.92;218.63;;;;;;;;;;4994988;28;20052;-56
2023/09/10 12:22:35;;;;;;;410.65;214.38;;;;;;;;;;4991951;28;20041;-56
2023/09/10 12:25:00;;;;;;;351.85;189.63;;;;;;;;;;4996505;28;20512;-57
2023/09/10 12:27:26;;;;;;;416.05;273.00;;;;;;;;;;4992587;28;20531;-58
2023/09/10 12:29:51;;;;;;;487.95;220.88;;;;;;;;;;4991030;28;20022;-57
2023/09/10 12:32:16;;;;;;;348.30;225.20;;;;;;;;;;4992130;28;20120;-58
2023/09/10 12:34:42;;;;;;;518.03;221.05;;;;;;;;;;4988562;28;20266;-57
2023/09/10 12:37:07;;;;;;;329.75;187.43;;;;;;;;;;4994441;28;20091;-59
2023/09/10 12:39:35;;;;;;;352.43;210.00;;;;;;;;;;4993500;28;20502;-58
2023/09/10 12:42:03;;;;;;;452.38;168.38;;;;;;;;;;4993662;28;20038;-59
2023/09/10 12:44:30;;;;;;;402.35;172.23;;;;;;;;;;4993490;28;20026;-57
2023/09/10 12:46:56;;;;;;;380.63;225.27;;;;;;;;;;4991880;28;20075;-57
2023/09/10 12:49:21;;;;;;;366.57;216.90;;;;;;;;;;4995874;28;20168;-57
2023/09/10 12:51:47;;;;;;;622.47;276.70;;;;;;;;;;4991921;28;21029;-56
2023/09/10 12:54:13;;;;;;;447.65;300.48;;;;;;;;;;4993415;28;20024;-57
2023/09/10 12:56:40;;;;;;;423.38;271.15;;;;;;;;;;4990128;28;20137;-57
2023/09/10 12:59:06;;;;;;;339.42;173.02;;;;;;;;;;4995691;28;20028;-57
2023/09/10 13:01:31;;;;;;;338.15;187.52;;;;;;;;;;4995016;28;20038;-59
2023/09/10 13:03:57;;;;;;;337.95;203.18;;;;;;;;;;4990345;28;20613;-57
2023/09/10 13:06:22;;;;;;;349.13;188.87;;;;;;;;;;4993598;28;20408;-57
2023/09/10 13:08:47;;;;;;;507.50;198.30;;;;;;;;;;4990666;28;20026;-58
2023/09/10 13:11:12;;;;;;;373.97;209.20;;;;;;;;;;4990126;28;20022;-57
2023/09/10 13:13:38;;;;;;;364.90;177.40;;;;;;;;;;4991717;28;20031;-56
2023/09/10 13:16:03;;;;;;;353.60;192.40;;;;;;;;;;4992833;28;20136;-57
2023/09/10 13:18:28;;;;;;;431.50;201.07;;;;;;;;;;4991055;28;20133;-58
2023/09/10 13:20:53;;;;;;;541.00;257.80;;;;;;;;;;4992456;28;20088;-58
2023/09/10 13:23:19;;;;;;;419.07;193.80;;;;;;;;;;4991331;28;20049;-57
2023/09/10 13:25:44;;;;;;;560.30;210.40;;;;;;;;;;4992844;28;20295;-57
2023/09/10 13:28:09;;;;;;;410.67;196.60;;;;;;;;;;4994954;28;20052;-58
2023/09/10 13:30:36;;;;;;;374.02;225.15;;;;;;;;;;4995347;28;20141;-56
2023/09/10 13:33:02;;;;;;;385.83;189.63;;;;;;;;;;4986370;28;20026;-57
2023/09/10 13:35:27;;;;;;;436.25;299.30;;;;;;;;;;4989513;28;20111;-58
2023/09/10 13:37:53;;;;;;;443.77;174.93;;;;;;;;;;4991658;28;20026;-56
2023/09/10 13:40:18;;;;;;;448.17;323.60;;;;;;;;;;4991429;28;20291;-56
2023/09/10 13:42:43;;;;;;;408.27;165.98;;;;;;;;;;4989271;28;20069;-59
2023/09/10 13:45:08;;;;;;;336.10;170.80;;;;;;;;;;4993211;28;20045;-58
2023/09/10 13:47:34;;;;;;;370.48;231.20;;;;;;;;;;4989564;28;20268;-57